createdAt,value
2023-01-02T00:00:05.223Z,24.62
2023-01-02T00:02:09.779Z,24.61
2023-01-02T00:04:14.216Z,24.59
2023-01-02T00:06:18.636Z,24.59
2023-01-02T00:08:23.044Z,24.6
2023-01-02T00:10:27.498Z,24.59
2023-01-02T00:12:32.097Z,24.56
2023-01-02T00:14:36.645Z,24.54
2023-01-02T00:16:41.065Z,24.56
2023-01-02T00:18:45.481Z,24.56
2023-01-02T00:20:49.892Z,24.52
2023-01-02T00:22:54.342Z,24.52
2023-01-02T00:24:58.729Z,24.51
2023-01-02T00:27:03.148Z,24.51
2023-01-02T00:29:07.569Z,24.5
2023-01-02T00:31:12.013Z,24.49
2023-01-02T00:33:16.579Z,24.48
2023-01-02T00:35:21.066Z,24.46
2023-01-02T00:37:25.490Z,24.45
2023-01-02T00:39:29.878Z,24.44
2023-01-02T00:41:34.303Z,24.44
2023-01-02T00:43:38.736Z,24.42
2023-01-02T00:45:43.129Z,24.41
2023-01-02T00:47:47.563Z,24.41
2023-01-02T00:49:51.974Z,24.38
2023-01-02T00:51:56.363Z,24.39
2023-01-02T00:54:00.819Z,24.38
2023-01-02T00:56:05.209Z,24.38
2023-01-02T00:58:09.686Z,24.35
2023-01-02T01:00:18.491Z,24.34
2023-01-02T01:02:28.021Z,24.33
2023-01-02T01:04:32.931Z,24.3
2023-01-02T01:06:37.371Z,24.3
2023-01-02T01:08:41.783Z,24.3
2023-01-02T01:10:46.207Z,24.29
2023-01-02T01:12:50.585Z,24.3
2023-01-02T01:14:54.990Z,24.31
2023-01-02T01:16:59.405Z,24.28
2023-01-02T01:19:03.837Z,24.29
2023-01-02T01:21:08.293Z,24.3
2023-01-02T01:23:12.790Z,24.32
2023-01-02T01:25:17.403Z,24.31
2023-01-02T01:27:21.865Z,24.32
2023-01-02T01:29:26.282Z,24.29
2023-01-02T01:31:30.669Z,24.3
2023-01-02T01:33:35.252Z,24.29
2023-01-02T01:35:39.667Z,24.3
2023-01-02T01:37:44.058Z,24.31
2023-01-02T01:39:50.585Z,24.33
2023-01-02T01:42:00.459Z,24.32
2023-01-02T01:44:04.867Z,24.31
2023-01-02T01:46:09.347Z,24.31
2023-01-02T01:48:13.822Z,24.3
2023-01-02T01:50:18.255Z,24.29
2023-01-02T01:52:22.637Z,24.28
2023-01-02T01:54:27.182Z,24.28
2023-01-02T01:56:31.626Z,24.29
2023-01-02T01:58:36.051Z,24.26
2023-01-02T02:00:40.502Z,24.25
2023-01-02T02:02:45.325Z,24.24
2023-01-02T02:04:50.565Z,24.23
2023-01-02T02:06:54.971Z,24.21
2023-01-02T02:08:59.407Z,24.22
2023-01-02T02:11:03.904Z,24.24
2023-01-02T02:13:08.291Z,24.25
2023-01-02T02:15:12.684Z,24.25
2023-01-02T02:17:17.080Z,24.24
2023-01-02T02:19:21.482Z,24.22
2023-01-02T02:21:25.918Z,24.22
2023-01-02T02:23:30.318Z,24.21
2023-01-02T02:25:34.737Z,24.19
2023-01-02T02:27:39.146Z,24.21
2023-01-02T02:29:43.591Z,24.22
2023-01-02T02:31:48.028Z,24.23
2023-01-02T02:33:52.557Z,24.22
2023-01-02T02:35:56.976Z,24.2
2023-01-02T02:38:01.375Z,24.21
2023-01-02T02:40:05.799Z,24.2
2023-01-02T02:42:10.312Z,24.19
2023-01-02T02:44:14.745Z,24.2
2023-01-02T02:46:19.194Z,24.17
2023-01-02T02:48:23.882Z,24.17
2023-01-02T02:50:28.280Z,24.17
2023-01-02T02:52:32.715Z,24.17
2023-01-02T02:54:37.126Z,24.15
2023-01-02T02:56:41.581Z,24.11
2023-01-02T02:58:46.025Z,24.11
2023-01-02T03:00:50.518Z,24.09
2023-01-02T03:02:55.131Z,24.08
2023-01-02T03:05:00.022Z,24.08
2023-01-02T03:07:04.531Z,24.09
2023-01-02T03:09:09.024Z,24.08
2023-01-02T03:11:13.466Z,24.07
2023-01-02T03:13:17.906Z,24.06
2023-01-02T03:16:52.912Z,24.01
2023-01-02T03:18:57.505Z,24.02
2023-01-02T03:21:01.983Z,24.03
2023-01-02T03:23:06.426Z,24.03
2023-01-02T03:25:10.856Z,24
2023-01-02T03:27:15.286Z,23.98
2023-01-02T03:29:19.793Z,23.98
2023-01-02T03:31:24.204Z,23.97
2023-01-02T03:33:28.699Z,23.96
2023-01-02T03:35:33.143Z,23.94
2023-01-02T03:37:37.530Z,23.94
2023-01-02T03:39:41.958Z,23.94
2023-01-02T03:41:46.378Z,23.93
2023-01-02T03:43:56.508Z,23.9
2023-01-02T03:46:01.258Z,23.9
2023-01-02T03:48:05.935Z,23.88
2023-01-02T03:50:10.344Z,23.87
2023-01-02T03:52:14.781Z,23.87
2023-01-02T03:54:28.511Z,23.87
2023-01-02T03:56:32.990Z,23.86
2023-01-02T03:58:37.459Z,23.84
2023-01-02T04:00:41.859Z,23.83
2023-01-02T04:02:46.395Z,23.81
2023-01-02T04:04:51.441Z,23.82
2023-01-02T04:06:55.957Z,23.81
2023-01-02T04:09:00.325Z,23.8
2023-01-02T04:11:04.722Z,23.77
2023-01-02T04:13:09.137Z,23.75
2023-01-02T04:15:13.535Z,23.76
2023-01-02T04:17:17.994Z,23.74
2023-01-02T04:19:22.353Z,23.73
2023-01-02T04:21:26.722Z,23.72
2023-01-02T04:23:31.239Z,23.7
2023-01-02T04:25:35.733Z,23.69
2023-01-02T04:27:40.204Z,23.69
2023-01-02T04:29:44.736Z,23.69
2023-01-02T04:31:49.224Z,23.67
2023-01-02T04:33:53.671Z,23.64
2023-01-02T04:35:58.086Z,23.66
2023-01-02T04:38:02.481Z,23.65
2023-01-02T04:40:06.871Z,23.65
2023-01-02T04:42:11.234Z,23.63
2023-01-02T04:44:15.679Z,23.61
2023-01-02T04:46:20.111Z,23.59
2023-01-02T04:48:24.767Z,23.6
2023-01-02T04:50:29.145Z,23.61
2023-01-02T04:52:37.276Z,23.6
2023-01-02T04:54:42.102Z,23.58
2023-01-02T04:56:46.475Z,23.55
2023-01-02T04:58:50.963Z,23.56
2023-01-02T05:00:55.377Z,23.55
2023-01-02T05:02:59.778Z,23.54
2023-01-02T05:05:04.183Z,23.54
2023-01-02T05:07:08.595Z,23.55
2023-01-02T05:09:13.005Z,23.55
2023-01-02T05:11:17.554Z,23.52
2023-01-02T05:13:22.666Z,23.53
2023-01-02T05:15:27.385Z,23.51
2023-01-02T05:17:31.922Z,23.49
2023-01-02T05:19:36.709Z,23.49
2023-01-02T05:21:41.106Z,23.49
2023-01-02T05:23:45.480Z,23.5
2023-01-02T05:25:50.023Z,23.49
2023-01-02T05:27:54.476Z,23.49
2023-01-02T05:29:58.871Z,23.5
2023-01-02T05:32:03.288Z,23.49
2023-01-02T05:34:07.705Z,23.48
2023-01-02T05:36:12.098Z,23.48
2023-01-02T05:38:16.494Z,23.46
2023-01-02T05:40:20.896Z,23.45
2023-01-02T05:42:25.340Z,23.46
2023-01-02T05:44:29.716Z,23.47
2023-01-02T05:46:34.115Z,23.47
2023-01-02T05:48:38.730Z,23.45
2023-01-02T05:50:43.225Z,23.44
2023-01-02T05:52:47.626Z,23.44
2023-01-02T05:54:52.077Z,23.41
2023-01-02T05:56:56.549Z,23.42
2023-01-02T05:59:00.985Z,23.42
2023-01-02T06:01:05.471Z,23.4
2023-01-02T06:03:10.059Z,23.39
2023-01-02T06:05:15.051Z,23.39
2023-01-02T06:07:19.532Z,23.39
2023-01-02T06:09:23.970Z,23.4
2023-01-02T06:11:28.367Z,23.4
2023-01-02T06:13:32.821Z,23.44
2023-01-02T06:15:37.442Z,23.51
2023-01-02T06:17:41.845Z,23.59
2023-01-02T06:19:51.993Z,23.66
2023-01-02T06:21:58.232Z,23.74
2023-01-02T06:24:02.648Z,23.78
2023-01-02T06:26:07.098Z,23.83
2023-01-02T06:28:11.582Z,23.92
2023-01-02T06:30:16.099Z,23.98
2023-01-02T06:32:20.613Z,24.02
2023-01-02T06:34:25.000Z,24.05
2023-01-02T06:36:29.367Z,24.08
2023-01-02T06:38:33.791Z,24.1
2023-01-02T06:40:38.205Z,24.08
2023-01-02T06:42:42.633Z,24.11
2023-01-02T06:44:47.012Z,24.13
2023-01-02T06:46:51.464Z,24.14
2023-01-02T06:48:55.952Z,24.18
2023-01-02T06:51:00.363Z,24.2
2023-01-02T06:53:04.803Z,24.22
2023-01-02T06:55:09.182Z,24.25
2023-01-02T06:57:13.577Z,24.26
2023-01-02T06:59:18.063Z,24.27
2023-01-02T07:01:22.725Z,24.29
2023-01-02T07:03:27.822Z,24.31
2023-01-02T07:05:32.263Z,24.32
2023-01-02T07:07:36.706Z,24.33
2023-01-02T07:09:41.140Z,24.34
2023-01-02T07:11:45.525Z,24.34
2023-01-02T07:13:49.927Z,24.32
2023-01-02T07:15:54.426Z,24.33
2023-01-02T07:17:58.844Z,24.36
2023-01-02T07:20:03.317Z,24.38
2023-01-02T07:22:07.749Z,24.41
2023-01-02T07:24:12.128Z,24.43
2023-01-02T07:26:16.487Z,24.46
2023-01-02T07:28:20.904Z,24.48
2023-01-02T07:30:25.265Z,24.5
2023-01-02T07:32:29.652Z,24.51
2023-01-02T07:34:34.123Z,24.52
2023-01-02T07:36:38.608Z,24.53
2023-01-02T07:38:43.011Z,24.54
2023-01-02T07:40:47.570Z,24.55
2023-01-02T07:42:52.010Z,24.56
2023-01-02T07:44:56.405Z,24.56
2023-01-02T07:47:00.825Z,24.57
2023-01-02T07:49:05.272Z,24.59
2023-01-02T07:51:09.735Z,24.59
2023-01-02T07:53:14.136Z,24.6
2023-01-02T07:55:18.523Z,24.6
2023-01-02T07:57:22.954Z,24.61
2023-01-02T07:59:27.339Z,24.62
2023-01-02T08:01:31.842Z,24.63
2023-01-02T08:03:36.673Z,24.64
2023-01-02T08:05:41.154Z,24.65
2023-01-02T08:07:45.547Z,24.67
2023-01-02T08:09:49.987Z,24.68
2023-01-02T08:11:54.354Z,24.7
2023-01-02T08:13:58.770Z,24.72
2023-01-02T08:16:03.162Z,24.71
2023-01-02T08:18:07.552Z,24.73
2023-01-02T08:20:12.033Z,24.73
2023-01-02T08:22:16.477Z,24.74
2023-01-02T08:24:20.875Z,24.76
2023-01-02T08:26:25.261Z,24.78
2023-01-02T08:28:29.712Z,24.81
2023-01-02T08:30:34.218Z,24.82
2023-01-02T08:32:38.801Z,24.83
2023-01-02T08:34:43.168Z,24.85
2023-01-02T08:36:47.643Z,24.86
2023-01-02T08:38:52.025Z,24.85
2023-01-02T08:40:56.476Z,24.88
2023-01-02T08:43:01.016Z,24.9
2023-01-02T08:45:05.447Z,24.9
2023-01-02T08:47:09.871Z,24.91
2023-01-02T08:49:14.313Z,24.92
2023-01-02T08:51:18.728Z,24.91
2023-01-02T08:53:23.112Z,24.92
2023-01-02T08:55:27.533Z,24.95
2023-01-02T08:57:31.963Z,24.95
2023-01-02T08:59:36.436Z,24.96
2023-01-02T09:01:40.865Z,24.98
2023-01-02T09:03:45.955Z,24.99
2023-01-02T09:05:50.383Z,25.01
2023-01-02T09:07:54.850Z,25.02
2023-01-02T09:09:59.261Z,25.04
2023-01-02T09:12:03.688Z,25.05
2023-01-02T09:14:08.118Z,25.06
2023-01-02T09:16:12.758Z,25.07
2023-01-02T09:18:17.371Z,25.08
2023-01-02T09:20:26.826Z,25.1
2023-01-02T09:22:31.251Z,25.12
2023-01-02T09:24:35.930Z,25.14
2023-01-02T09:26:40.443Z,25.16
2023-01-02T09:28:44.823Z,25.19
2023-01-02T09:30:49.287Z,25.17
2023-01-02T09:32:53.796Z,25.2
2023-01-02T09:34:58.281Z,25.21
2023-01-02T09:37:02.881Z,25.23
2023-01-02T09:39:07.261Z,25.26
2023-01-02T09:41:11.753Z,25.29
2023-01-02T09:43:16.198Z,25.29
2023-01-02T09:45:20.586Z,25.29
2023-01-02T09:47:25.039Z,25.32
2023-01-02T09:49:29.516Z,25.33
2023-01-02T09:51:33.917Z,25.35
2023-01-02T09:53:38.306Z,25.37
2023-01-02T09:55:42.727Z,25.37
2023-01-02T09:57:47.220Z,25.36
2023-01-02T09:59:51.750Z,25.36
2023-01-02T10:01:56.245Z,25.3
2023-01-02T10:04:00.872Z,25.29
2023-01-02T10:06:05.481Z,25.25
2023-01-02T10:08:09.894Z,25.23
2023-01-02T10:10:14.283Z,25.21
2023-01-02T10:12:18.707Z,25.17
2023-01-02T10:14:26.406Z,25.14
2023-01-02T10:16:46.933Z,25.09
2023-01-02T10:18:51.406Z,25.05
2023-01-02T10:20:55.871Z,25.04
2023-01-02T10:23:00.243Z,25.04
2023-01-02T10:25:04.689Z,25.05
2023-01-02T10:27:09.066Z,25.07
2023-01-02T10:29:13.454Z,25.09
2023-01-02T10:31:17.932Z,25.08
2023-01-02T10:33:22.511Z,25.11
2023-01-02T10:35:26.933Z,25.1
2023-01-02T10:37:31.374Z,25.1
2023-01-02T10:39:35.833Z,25.14
2023-01-02T10:41:40.257Z,25.15
2023-01-02T10:43:44.664Z,25.18
2023-01-02T10:45:49.019Z,25.19
2023-01-02T10:47:53.459Z,25.23
2023-01-02T10:49:57.836Z,25.29
2023-01-02T10:52:02.406Z,25.32
2023-01-02T10:54:06.786Z,25.31
2023-01-02T10:56:11.165Z,25.33
2023-01-02T10:58:15.685Z,25.34
2023-01-02T11:00:25.620Z,25.35
2023-01-02T11:02:32.656Z,25.35
2023-01-02T11:04:37.356Z,25.35
2023-01-02T11:06:41.733Z,25.34
2023-01-02T11:08:46.177Z,25.35
2023-01-02T11:10:50.676Z,25.37
2023-01-02T11:12:55.087Z,25.38
2023-01-02T11:14:59.524Z,25.38
2023-01-02T11:17:03.934Z,25.4
2023-01-02T11:19:08.371Z,25.4
2023-01-02T11:21:12.865Z,25.43
2023-01-02T11:23:17.270Z,25.43
2023-01-02T11:25:21.664Z,25.41
2023-01-02T11:27:26.062Z,25.41
2023-01-02T11:29:30.512Z,25.42
2023-01-02T11:31:35.046Z,25.44
2023-01-02T11:33:39.616Z,25.46
2023-01-02T11:35:44.030Z,25.45
2023-01-02T11:37:48.441Z,25.48
2023-01-02T11:39:52.833Z,25.45
2023-01-02T11:41:57.219Z,25.5
2023-01-02T11:44:01.674Z,25.53
2023-01-02T11:46:06.133Z,25.55
2023-01-02T11:48:10.692Z,25.56
2023-01-02T11:50:15.299Z,25.53
2023-01-02T11:52:19.892Z,25.53
2023-01-02T11:54:24.277Z,25.5
2023-01-02T11:56:28.776Z,25.5
2023-01-02T11:58:33.162Z,25.49
2023-01-02T12:00:37.567Z,25.52
2023-01-02T12:02:42.046Z,25.57
2023-01-02T12:04:46.804Z,25.57
2023-01-02T12:06:51.425Z,25.56
2023-01-02T12:08:55.826Z,25.53
2023-01-02T12:11:00.317Z,25.53
2023-01-02T12:13:04.740Z,25.5
2023-01-02T12:15:09.279Z,25.48
2023-01-02T12:17:13.642Z,25.49
2023-01-02T12:19:18.090Z,25.5
2023-01-02T12:21:22.544Z,25.49
2023-01-02T12:23:27.098Z,25.49
2023-01-02T12:25:31.492Z,25.5
2023-01-02T12:27:35.877Z,25.46
2023-01-02T12:29:45.783Z,25.42
2023-01-02T12:31:52.569Z,25.46
2023-01-02T12:33:57.157Z,25.46
2023-01-02T12:36:01.565Z,25.47
2023-01-02T12:38:05.991Z,25.49
2023-01-02T12:40:10.370Z,25.48
2023-01-02T12:42:14.775Z,25.46
2023-01-02T12:44:19.198Z,25.47
2023-01-02T12:46:23.639Z,25.46
2023-01-02T12:48:28.103Z,25.45
2023-01-02T12:50:32.449Z,25.45
2023-01-02T12:52:36.824Z,25.45
2023-01-02T12:54:41.142Z,25.43
2023-01-02T12:56:45.497Z,25.44
2023-01-02T12:58:50.029Z,25.44
2023-01-02T13:00:54.515Z,25.44
2023-01-02T13:02:59.276Z,25.38
2023-01-02T13:05:03.857Z,25.37
2023-01-02T13:07:08.257Z,25.34
2023-01-02T13:09:15.701Z,25.35
2023-01-02T13:11:26.444Z,25.31
2023-01-02T13:13:30.850Z,25.3
2023-01-02T13:15:35.301Z,25.28
2023-01-02T13:17:39.771Z,25.26
2023-01-02T13:19:44.218Z,25.22
2023-01-02T13:21:48.747Z,25.23
2023-01-02T13:23:53.283Z,25.23
2023-01-02T13:25:57.696Z,25.19
2023-01-02T13:28:02.133Z,25.19
2023-01-02T13:30:06.579Z,25.19
2023-01-02T13:32:11.036Z,25.16
2023-01-02T13:34:15.613Z,25.16
2023-01-02T13:36:27.404Z,25.15
2023-01-02T13:38:31.847Z,25.18
2023-01-02T13:40:36.273Z,25.22
2023-01-02T13:42:40.648Z,25.24
2023-01-02T13:44:45.168Z,25.27
2023-01-02T13:47:05.178Z,25.27
2023-01-02T13:49:09.897Z,25.27
2023-01-02T13:51:14.376Z,25.23
2023-01-02T13:53:18.788Z,25.21
2023-01-02T13:55:23.269Z,25.22
2023-01-02T13:57:27.717Z,25.22
2023-01-02T13:59:42.395Z,25.24
2023-01-02T14:01:50.518Z,25.25
2023-01-02T14:03:55.478Z,25.25
2023-01-02T14:05:59.910Z,25.29
2023-01-02T14:08:04.471Z,25.33
2023-01-02T14:10:08.913Z,25.34
2023-01-02T14:12:13.470Z,25.39
2023-01-02T14:14:17.882Z,25.46
2023-01-02T14:16:22.340Z,25.48
2023-01-02T14:18:30.187Z,25.52
2023-01-02T14:20:34.821Z,25.56
2023-01-02T14:22:39.386Z,25.61
2023-01-02T14:24:43.813Z,25.64
2023-01-02T14:26:48.254Z,25.62
2023-01-02T14:28:52.751Z,25.56
2023-01-02T14:30:57.337Z,25.5
2023-01-02T14:33:02.062Z,25.46
2023-01-02T14:35:06.468Z,25.39
2023-01-02T14:37:10.894Z,25.34
2023-01-02T14:39:15.469Z,25.31
2023-01-02T14:41:19.835Z,25.29
2023-01-02T14:43:24.296Z,25.34
2023-01-02T14:45:28.706Z,25.42
2023-01-02T14:47:33.154Z,25.43
2023-01-02T14:49:37.672Z,25.4
2023-01-02T14:51:42.095Z,25.39
2023-01-02T14:53:46.538Z,25.4
2023-01-02T14:55:50.924Z,25.39
2023-01-02T14:57:55.362Z,25.33
2023-01-02T14:59:59.804Z,25.31
2023-01-02T15:02:04.438Z,25.31
2023-01-02T15:04:09.677Z,25.32
2023-01-02T15:06:14.206Z,25.32
2023-01-02T15:08:18.602Z,25.27
2023-01-02T15:10:23.135Z,25.21
2023-01-02T15:12:27.529Z,25.18
2023-01-02T15:14:31.971Z,25.2
2023-01-02T15:16:36.373Z,25.27
2023-01-02T15:18:40.774Z,25.26
2023-01-02T15:20:45.172Z,25.26
2023-01-02T15:22:49.548Z,25.25
2023-01-02T15:24:54.023Z,25.25
2023-01-02T15:26:58.525Z,25.22
2023-01-02T15:29:02.927Z,25.21
2023-01-02T15:31:07.359Z,25.19
2023-01-02T15:33:11.980Z,25.18
2023-01-02T15:35:16.425Z,25.17
2023-01-02T15:37:20.882Z,25.19
2023-01-02T15:39:26.089Z,25.18
2023-01-02T15:41:30.648Z,25.18
2023-01-02T15:43:35.192Z,25.15
2023-01-02T15:45:39.585Z,25.15
2023-01-02T15:47:43.988Z,25.15
2023-01-02T15:49:48.427Z,25.14
2023-01-02T15:51:52.835Z,25.14
2023-01-02T15:54:01.571Z,25.12
2023-01-02T15:56:07.528Z,25.12
2023-01-02T15:58:12.006Z,25.1
2023-01-02T16:00:16.445Z,25.08
2023-01-02T16:02:20.974Z,25.08
2023-01-02T16:04:25.709Z,25.08
2023-01-02T16:06:30.417Z,25.07
2023-01-02T16:08:38.027Z,25.07
2023-01-02T16:10:46.199Z,25.06
2023-01-02T16:12:55.151Z,25.05
2023-01-02T16:14:59.776Z,25.04
2023-01-02T16:17:04.254Z,25.05
2023-01-02T16:19:08.727Z,25.06
2023-01-02T16:21:13.356Z,25.06
2023-01-02T16:23:17.767Z,25.07
2023-01-02T16:25:22.241Z,25.06
2023-01-02T16:27:26.609Z,25.07
2023-01-02T16:29:30.980Z,25.05
2023-01-02T16:31:35.431Z,25.05
2023-01-02T16:33:40.006Z,25.05
2023-01-02T16:35:44.500Z,25.04
2023-01-02T16:37:48.901Z,25.03
2023-01-02T16:39:53.324Z,25.02
2023-01-02T16:41:57.750Z,25.02
2023-01-02T16:44:02.166Z,25.03
2023-01-02T16:46:06.648Z,25.02
2023-01-02T16:48:11.250Z,25.01
2023-01-02T16:50:15.713Z,25.03
2023-01-02T16:52:20.288Z,25.02
2023-01-02T16:54:24.709Z,25.02
2023-01-02T16:56:29.114Z,25
2023-01-02T16:58:33.581Z,25
2023-01-02T17:00:43.105Z,25
2023-01-02T17:02:48.224Z,25.01
2023-01-02T17:04:53.093Z,25.01
2023-01-02T17:06:57.514Z,25.04
2023-01-02T17:09:02.071Z,25.05
2023-01-02T17:11:06.531Z,25.06
2023-01-02T17:13:11.068Z,25.04
2023-01-02T17:15:15.506Z,25
2023-01-02T17:17:19.941Z,24.96
2023-01-02T17:19:24.372Z,24.98
2023-01-02T17:21:32.651Z,25.03
2023-01-02T17:23:37.488Z,25.09
2023-01-02T17:25:41.865Z,25.18
2023-01-02T17:27:46.333Z,25.23
2023-01-02T17:29:50.759Z,25.26
2023-01-02T17:31:55.171Z,25.32
2023-01-02T17:33:59.752Z,25.39
2023-01-02T17:36:04.176Z,25.45
2023-01-02T17:38:08.558Z,25.48
2023-01-02T17:40:13.001Z,25.48
2023-01-02T17:42:17.414Z,25.45
2023-01-02T17:44:21.955Z,25.45
2023-01-02T17:46:58.632Z,25.44
2023-01-02T17:50:03.913Z,25.45
2023-01-02T17:52:08.663Z,25.47
2023-01-02T17:54:13.128Z,25.49
2023-01-02T17:56:20.318Z,25.49
2023-01-02T17:58:26.688Z,25.5
2023-01-02T18:00:31.249Z,25.53
2023-01-02T18:02:35.761Z,25.55
2023-01-02T18:04:40.590Z,25.56
2023-01-02T18:06:45.104Z,25.55
2023-01-02T18:08:49.661Z,25.53
2023-01-02T18:10:54.060Z,25.5
2023-01-02T18:12:58.484Z,25.47
2023-01-02T18:15:02.887Z,25.49
2023-01-02T18:17:07.293Z,25.53
2023-01-02T18:19:11.719Z,25.53
2023-01-02T18:21:16.113Z,25.58
2023-01-02T18:23:20.546Z,25.6
2023-01-02T18:25:24.981Z,25.64
2023-01-02T18:27:29.885Z,25.66
2023-01-02T18:29:34.360Z,25.68
2023-01-02T18:31:38.888Z,25.69
2023-01-02T18:33:43.314Z,25.7
2023-01-02T18:36:03.210Z,25.7
2023-01-02T18:38:07.731Z,25.75
2023-01-02T18:40:12.252Z,25.74
2023-01-02T18:42:16.682Z,25.74
2023-01-02T18:44:21.089Z,25.76
2023-01-02T18:46:25.561Z,25.77
2023-01-02T18:49:09.016Z,25.84
2023-01-02T18:51:13.423Z,25.84
2023-01-02T18:53:17.844Z,25.86
2023-01-02T18:55:22.283Z,25.87
2023-01-02T18:57:26.672Z,25.86
2023-01-02T18:59:31.114Z,25.83
2023-01-02T19:01:35.809Z,25.82
2023-01-02T19:03:40.902Z,25.86
2023-01-02T19:05:45.379Z,25.89
2023-01-02T19:07:49.826Z,25.92
2023-01-02T19:09:54.214Z,25.94
2023-01-02T19:11:58.609Z,25.95
2023-01-02T19:14:03.100Z,25.93
2023-01-02T19:16:07.550Z,25.93
2023-01-02T19:18:12.039Z,25.93
2023-01-02T19:20:16.583Z,25.94
2023-01-02T19:22:20.997Z,25.95
2023-01-02T19:24:25.461Z,25.94
2023-01-02T19:26:29.881Z,25.97
2023-01-02T19:28:34.346Z,25.95
2023-01-02T19:30:39.042Z,25.93
2023-01-02T19:32:43.637Z,25.9
2023-01-02T19:34:48.110Z,25.92
2023-01-02T19:36:52.667Z,25.92
2023-01-02T19:38:57.155Z,25.93
2023-01-02T19:41:01.678Z,25.95
2023-01-02T19:43:06.278Z,25.95
2023-01-02T19:45:10.776Z,25.97
2023-01-02T19:47:15.242Z,26
2023-01-02T19:49:19.752Z,26.03
2023-01-02T19:51:24.170Z,26.04
2023-01-02T19:53:28.620Z,26.06
2023-01-02T19:55:33.108Z,26.07
2023-01-02T19:57:37.662Z,26.04
2023-01-02T19:59:43.951Z,26.05
2023-01-02T20:01:48.638Z,26.07
2023-01-02T20:03:53.631Z,26.07
2023-01-02T20:05:58.048Z,26.08
2023-01-02T20:08:02.481Z,26.1
2023-01-02T20:10:06.927Z,26.11
2023-01-02T20:12:11.322Z,26.1
2023-01-02T20:14:16.011Z,26.11
2023-01-02T20:16:20.685Z,26.11
2023-01-02T20:18:25.419Z,26.13
2023-01-02T20:20:29.888Z,26.14
2023-01-02T20:22:34.297Z,26.16
2023-01-02T20:24:38.734Z,26.16
2023-01-02T20:26:43.201Z,26.17
2023-01-02T20:28:47.710Z,26.18
2023-01-02T20:30:52.311Z,26.17
2023-01-02T20:32:56.967Z,26.17
2023-01-02T20:35:01.530Z,26.16
2023-01-02T20:37:05.962Z,26.13
2023-01-02T20:39:10.367Z,26.11
2023-01-02T20:41:14.877Z,26.09
2023-01-02T20:43:19.388Z,26.07
2023-01-02T20:45:23.859Z,26.08
2023-01-02T20:47:28.388Z,26.09
2023-01-02T20:49:32.813Z,26.1
2023-01-02T20:51:37.302Z,26.1
2023-01-02T20:53:41.721Z,26.09
2023-01-02T20:55:46.208Z,26.1
2023-01-02T20:57:51.544Z,26.1
2023-01-02T20:59:58.041Z,26.07
2023-01-02T21:02:03.105Z,26.09
2023-01-02T21:04:08.106Z,26.07
2023-01-02T21:06:12.847Z,26.06
2023-01-02T21:08:17.348Z,26.03
2023-01-02T21:10:21.864Z,26.03
2023-01-02T21:12:29.523Z,26.08
2023-01-02T21:14:37.259Z,26.13
2023-01-02T21:16:42.054Z,26.12
2023-01-02T21:18:46.659Z,26.15
2023-01-02T21:20:51.092Z,26.15
2023-01-02T21:22:55.457Z,26.19
2023-01-02T21:24:59.873Z,26.19
2023-01-02T21:27:07.852Z,26.2
2023-01-02T21:29:16.860Z,26.19
2023-01-02T21:31:21.383Z,26.2
2023-01-02T21:33:26.091Z,26.22
2023-01-02T21:35:30.494Z,26.24
2023-01-02T21:37:35.029Z,26.19
2023-01-02T21:39:39.453Z,26.12
2023-01-02T21:41:43.889Z,26.03
2023-01-02T21:43:48.392Z,25.9
2023-01-02T21:45:52.832Z,25.78
2023-01-02T21:47:57.263Z,25.72
2023-01-02T21:50:01.635Z,25.68
2023-01-02T21:52:06.031Z,25.62
2023-01-02T21:54:10.555Z,25.59
2023-01-02T21:56:14.971Z,25.54
2023-01-02T21:58:19.407Z,25.5
2023-01-02T22:00:23.889Z,25.46
2023-01-02T22:02:35.336Z,25.46
2023-01-02T22:04:42.701Z,25.44
2023-01-02T22:07:21.185Z,25.42
2023-01-02T22:09:40.556Z,25.39
2023-01-02T22:11:45.053Z,25.38
2023-01-02T22:13:49.539Z,25.36
2023-01-02T22:15:54.014Z,25.35
2023-01-02T22:17:58.548Z,25.31
2023-01-02T22:20:02.932Z,25.3
2023-01-02T22:22:07.378Z,25.28
2023-01-02T22:24:11.787Z,25.26
2023-01-02T22:26:16.265Z,25.24
2023-01-02T22:28:20.747Z,25.25
2023-01-02T22:30:33.316Z,25.28
2023-01-02T22:32:39.007Z,25.31
2023-01-02T22:34:43.427Z,25.32
2023-01-02T22:36:47.844Z,25.33
2023-01-02T22:39:18.001Z,25.31
2023-01-02T22:41:32.189Z,25.29
2023-01-02T22:43:36.663Z,25.28
2023-01-02T22:45:41.166Z,25.27
2023-01-02T22:47:45.762Z,25.22
2023-01-02T22:49:50.157Z,25.23
2023-01-02T22:52:06.829Z,25.2
2023-01-02T22:54:11.714Z,25.17
2023-01-02T22:56:16.162Z,25.17
2023-01-02T22:58:20.541Z,25.17
2023-01-02T23:00:25.080Z,25.17
2023-01-02T23:02:29.505Z,25.15
2023-01-02T23:04:33.942Z,25.13
2023-01-02T23:06:51.648Z,25.12
2023-01-02T23:09:27.692Z,25.1
2023-01-02T23:11:32.185Z,25.1
2023-01-02T23:13:36.555Z,25.08
2023-01-02T23:15:41.124Z,25.08
2023-01-02T23:17:45.712Z,25.08
2023-01-02T23:19:50.091Z,25.07
2023-01-02T23:21:54.481Z,25.06
2023-01-02T23:23:58.915Z,25.05
2023-01-02T23:26:03.302Z,25.05
2023-01-02T23:28:07.779Z,25.02
2023-01-02T23:30:13.914Z,25.02
2023-01-02T23:32:18.393Z,25.03
2023-01-02T23:34:22.940Z,25.04
2023-01-02T23:36:27.369Z,25.03
2023-01-02T23:38:31.780Z,25.02
2023-01-02T23:40:36.224Z,25.02
2023-01-02T23:42:40.634Z,25.03
2023-01-02T23:44:45.053Z,25.03
2023-01-02T23:46:49.470Z,25.02
2023-01-02T23:48:53.868Z,25
2023-01-02T23:50:58.301Z,25
2023-01-02T23:53:02.722Z,24.98
2023-01-02T23:55:07.125Z,24.99
2023-01-02T23:57:11.543Z,24.98
2023-01-02T23:59:16.004Z,24.98
